createdAt,value
2022-12-05T00:01:20.364Z,93.70
2022-12-05T00:03:49.603Z,93.70
2022-12-05T00:06:17.590Z,93.70
2022-12-05T00:08:45.462Z,93.80
2022-12-05T00:11:14.868Z,93.70
2022-12-05T00:13:42.761Z,93.70
2022-12-05T00:16:11.863Z,93.80
2022-12-05T00:18:38.976Z,93.70
2022-12-05T00:21:07.111Z,93.80
2022-12-05T00:23:34.260Z,93.80
2022-12-05T00:26:05.465Z,93.70
2022-12-05T00:28:33.826Z,93.70
2022-12-05T00:31:12.279Z,93.70
2022-12-05T00:33:39.744Z,93.70
2022-12-05T00:36:20.289Z,93.80
2022-12-05T00:38:48.005Z,93.70
2022-12-05T00:41:20.831Z,93.80
2022-12-05T00:43:47.822Z,93.70
2022-12-05T00:46:22.043Z,93.70
2022-12-05T00:48:49.322Z,93.80
2022-12-05T00:51:24.483Z,93.70
2022-12-05T00:53:51.511Z,93.70
2022-12-05T00:56:21.459Z,93.70
2022-12-05T00:58:49.796Z,93.80
2022-12-05T01:01:19.312Z,93.70
2022-12-05T01:03:47.496Z,93.70
2022-12-05T01:06:16.142Z,93.90
2022-12-05T01:08:43.632Z,93.80
2022-12-05T01:11:12.227Z,93.70
2022-12-05T01:13:39.245Z,93.70
2022-12-05T01:16:06.649Z,94.00
2022-12-05T01:18:33.688Z,94.10
2022-12-05T01:21:00.705Z,93.80
2022-12-05T01:23:27.699Z,93.80
2022-12-05T01:25:54.692Z,93.80
2022-12-05T01:28:21.845Z,93.80
2022-12-05T01:30:50.218Z,93.80
2022-12-05T01:33:18.108Z,93.80
2022-12-05T01:35:45.412Z,93.70
2022-12-05T01:38:13.116Z,93.70
2022-12-05T01:40:41.386Z,93.70
2022-12-05T01:43:16.516Z,93.70
2022-12-05T01:45:46.502Z,93.80
2022-12-05T01:48:25.669Z,93.70
2022-12-05T01:50:53.217Z,93.70
2022-12-05T01:53:20.708Z,93.80
2022-12-05T01:55:50.080Z,93.70
2022-12-05T01:58:17.892Z,93.80
2022-12-05T02:00:45.514Z,93.70
2022-12-05T02:03:18.484Z,93.80
2022-12-05T02:05:50.114Z,93.80
2022-12-05T02:08:17.372Z,93.80
2022-12-05T02:10:56.924Z,93.80
2022-12-05T02:13:27.150Z,93.80
2022-12-05T02:16:06.205Z,93.80
2022-12-05T02:18:53.500Z,93.80
2022-12-05T02:21:29.502Z,93.70
2022-12-05T02:24:23.917Z,93.70
2022-12-05T02:27:00.807Z,93.70
2022-12-05T02:29:55.089Z,93.70
2022-12-05T02:32:52.869Z,93.80
2022-12-05T02:36:00.972Z,93.80
2022-12-05T02:38:33.766Z,93.80
2022-12-05T02:41:42.679Z,93.70
2022-12-05T02:44:18.555Z,93.70
2022-12-05T02:46:48.914Z,93.70
2022-12-05T02:49:22.200Z,93.70
2022-12-05T02:51:59.167Z,93.70
2022-12-05T02:54:31.439Z,93.80
2022-12-05T02:57:00.500Z,93.70
2022-12-05T02:59:28.040Z,93.70
2022-12-05T03:01:55.598Z,93.70
2022-12-05T03:04:24.969Z,93.70
2022-12-05T03:07:02.550Z,93.70
2022-12-05T03:09:36.802Z,93.70
2022-12-05T03:12:32.692Z,93.70
2022-12-05T03:15:12.269Z,93.70
2022-12-05T03:17:50.484Z,93.70
2022-12-05T03:20:20.556Z,93.70
2022-12-05T03:22:58.774Z,93.70
2022-12-05T03:25:40.138Z,93.70
2022-12-05T03:28:17.582Z,93.70
2022-12-05T03:30:48.474Z,93.70
2022-12-05T03:33:20.139Z,93.70
2022-12-05T03:35:47.015Z,93.60
2022-12-05T03:38:17.970Z,93.60
2022-12-05T03:40:47.940Z,93.60
2022-12-05T03:43:50.278Z,93.60
2022-12-05T03:46:41.113Z,93.60
2022-12-05T03:49:36.929Z,93.60
2022-12-05T03:52:16.094Z,93.60
2022-12-05T03:55:10.238Z,93.70
2022-12-05T03:57:50.563Z,93.90
2022-12-05T04:00:23.101Z,93.60
2022-12-05T04:03:09.854Z,93.60
2022-12-05T04:05:43.701Z,93.60
2022-12-05T04:08:20.312Z,93.60
2022-12-05T04:10:53.336Z,93.60
2022-12-05T04:13:39.134Z,93.60
2022-12-05T04:16:32.352Z,93.60
2022-12-05T04:19:13.473Z,93.60
2022-12-05T04:21:45.530Z,93.60
2022-12-05T04:24:38.390Z,93.50
2022-12-05T04:27:47.426Z,93.60
2022-12-05T04:30:20.682Z,93.60
2022-12-05T04:33:06.393Z,93.50
2022-12-05T04:35:43.441Z,93.50
2022-12-05T04:38:25.190Z,93.50
2022-12-05T04:41:04.017Z,93.50
2022-12-05T04:43:38.446Z,93.50
2022-12-05T04:46:08.343Z,93.50
2022-12-05T04:48:39.530Z,93.50
2022-12-05T04:51:09.511Z,93.50
2022-12-05T04:53:37.085Z,93.50
2022-12-05T04:56:05.217Z,93.50
2022-12-05T04:58:32.701Z,93.50
2022-12-05T05:01:10.067Z,93.50
2022-12-05T05:04:07.614Z,93.50
2022-12-05T05:06:38.263Z,93.50
2022-12-05T05:09:05.509Z,93.50
2022-12-05T05:11:34.272Z,93.50
2022-12-05T05:14:02.494Z,93.40
2022-12-05T05:16:38.625Z,93.50
2022-12-05T05:19:07.327Z,93.40
2022-12-05T05:21:37.065Z,93.50
2022-12-05T05:24:04.548Z,93.40
2022-12-05T05:26:34.105Z,93.50
2022-12-05T05:29:02.548Z,93.40
2022-12-05T05:31:29.724Z,93.40
2022-12-05T05:33:57.840Z,93.40
2022-12-05T05:36:26.913Z,93.40
2022-12-05T05:38:56.334Z,93.50
2022-12-05T05:41:27.566Z,93.40
2022-12-05T05:43:54.675Z,93.40
2022-12-05T05:46:24.732Z,93.50
2022-12-05T05:48:52.076Z,93.50
2022-12-05T05:51:20.403Z,93.70
2022-12-05T05:53:48.157Z,93.50
2022-12-05T05:56:21.547Z,93.40
2022-12-05T05:58:58.390Z,93.50
2022-12-05T06:01:25.700Z,93.50
2022-12-05T06:03:52.942Z,93.40
2022-12-05T06:06:24.000Z,93.70
2022-12-05T06:08:55.842Z,93.60
2022-12-05T06:11:26.715Z,93.60
2022-12-05T06:13:55.967Z,93.60
2022-12-05T06:16:23.404Z,93.90
2022-12-05T06:18:51.609Z,94.00
2022-12-05T06:21:19.076Z,94.00
2022-12-05T06:23:46.224Z,94.30
2022-12-05T06:26:16.260Z,94.10
2022-12-05T06:28:44.555Z,94.10
2022-12-05T06:31:20.640Z,94.30
2022-12-05T06:33:48.171Z,94.20
2022-12-05T06:36:17.688Z,94.20
2022-12-05T06:38:45.021Z,94.10
2022-12-05T06:41:15.641Z,94.20
2022-12-05T06:43:43.034Z,94.20
2022-12-05T06:46:12.112Z,94.20
2022-12-05T06:48:39.753Z,94.10
2022-12-05T06:51:11.431Z,94.10
2022-12-05T06:53:39.374Z,94.00
2022-12-05T06:56:08.347Z,94.00
2022-12-05T06:58:35.379Z,94.00
2022-12-05T07:01:21.104Z,94.00
2022-12-05T07:03:51.467Z,94.10
2022-12-05T07:06:18.659Z,94.00
2022-12-05T07:08:45.712Z,93.90
2022-12-05T07:11:12.751Z,93.90
2022-12-05T07:13:39.783Z,93.90
2022-12-05T07:16:07.420Z,93.90
2022-12-05T07:18:35.391Z,94.00
2022-12-05T07:21:13.439Z,93.90
2022-12-05T07:23:42.435Z,93.90
2022-12-05T07:26:14.699Z,93.90
2022-12-05T07:28:42.421Z,93.90
2022-12-05T07:31:12.429Z,93.90
2022-12-05T07:33:39.854Z,94.20
2022-12-05T07:36:12.450Z,93.90
2022-12-05T07:38:40.112Z,93.90
2022-12-05T07:41:13.342Z,93.80
2022-12-05T07:43:42.026Z,93.90
2022-12-05T07:46:11.556Z,93.80
2022-12-05T07:48:39.688Z,93.80
2022-12-05T07:51:08.381Z,93.90
2022-12-05T07:53:35.960Z,93.90
2022-12-05T07:56:05.389Z,93.80
2022-12-05T07:58:33.616Z,93.80
2022-12-05T08:01:21.414Z,93.80
2022-12-05T08:03:49.858Z,93.90
2022-12-05T08:06:20.291Z,93.90
2022-12-05T08:08:50.160Z,93.80
2022-12-05T08:11:23.222Z,93.90
2022-12-05T08:13:51.239Z,93.90
2022-12-05T08:16:21.122Z,93.80
2022-12-05T08:18:48.393Z,93.90
2022-12-05T08:21:18.171Z,93.80
2022-12-05T08:23:46.529Z,93.90
2022-12-05T08:26:16.921Z,93.90
2022-12-05T08:28:44.711Z,93.90
2022-12-05T08:31:14.998Z,93.90
2022-12-05T08:33:42.957Z,93.80
2022-12-05T08:36:13.462Z,93.90
2022-12-05T08:38:40.628Z,93.90
2022-12-05T08:41:12.164Z,93.90
2022-12-05T08:43:39.595Z,93.90
2022-12-05T08:46:07.330Z,93.90
2022-12-05T08:48:35.683Z,93.90
2022-12-05T08:51:09.267Z,93.80
2022-12-05T08:53:43.843Z,93.90
2022-12-05T08:56:12.202Z,93.90
2022-12-05T08:58:40.119Z,93.90
2022-12-05T09:01:09.431Z,93.80
2022-12-05T09:03:36.973Z,93.80
2022-12-05T09:06:21.688Z,93.90
2022-12-05T09:08:49.809Z,93.90
2022-12-05T09:11:20.188Z,93.90
2022-12-05T09:13:48.317Z,93.90
2022-12-05T09:16:18.620Z,93.90
2022-12-05T09:18:47.577Z,93.90
2022-12-05T09:21:21.467Z,94.00
2022-12-05T09:23:48.949Z,94.00
2022-12-05T09:26:19.507Z,93.90
2022-12-05T09:28:46.773Z,93.90
2022-12-05T09:31:22.013Z,93.90
2022-12-05T09:33:50.905Z,93.90
2022-12-05T09:36:25.993Z,94.10
2022-12-05T09:38:54.047Z,93.90
2022-12-05T09:42:04.901Z,93.90
2022-12-05T09:44:41.784Z,94.20
2022-12-05T09:47:14.543Z,93.90
2022-12-05T09:50:04.838Z,93.90
2022-12-05T09:52:38.897Z,93.90
2022-12-05T09:55:17.403Z,93.90
2022-12-05T09:57:59.739Z,94.30
2022-12-05T10:00:30.053Z,93.90
2022-12-05T10:03:03.181Z,93.90
2022-12-05T10:05:38.269Z,93.90
2022-12-05T10:08:23.751Z,94.00
2022-12-05T10:11:05.581Z,93.90
2022-12-05T10:13:47.910Z,93.90
2022-12-05T10:16:21.774Z,93.90
2022-12-05T10:19:04.578Z,93.90
2022-12-05T10:21:42.001Z,93.90
2022-12-05T10:24:21.970Z,93.90
2022-12-05T10:27:00.055Z,93.90
2022-12-05T10:29:29.750Z,93.90
2022-12-05T10:32:26.886Z,93.90
2022-12-05T10:35:00.705Z,93.90
2022-12-05T10:37:30.852Z,93.90
2022-12-05T10:39:58.853Z,93.90
2022-12-05T10:42:29.807Z,94.10
2022-12-05T10:45:03.741Z,93.90
2022-12-05T10:47:32.203Z,93.90
2022-12-05T10:50:05.577Z,93.90
2022-12-05T10:52:32.786Z,93.90
2022-12-05T10:55:04.244Z,93.90
2022-12-05T10:57:31.337Z,93.90
2022-12-05T11:00:09.272Z,93.80
2022-12-05T11:02:38.213Z,93.80
2022-12-05T11:05:05.582Z,93.80
2022-12-05T11:07:34.601Z,93.80
2022-12-05T11:10:04.448Z,93.80
2022-12-05T11:12:34.147Z,93.90
2022-12-05T11:15:22.930Z,93.90
2022-12-05T11:17:54.304Z,93.90
2022-12-05T11:20:21.263Z,93.80
2022-12-05T11:22:56.676Z,93.90
2022-12-05T11:25:36.676Z,93.90
2022-12-05T11:28:18.652Z,93.80
2022-12-05T11:31:14.525Z,93.80
2022-12-05T11:33:41.791Z,93.80
2022-12-05T11:36:20.846Z,93.90
2022-12-05T11:38:48.706Z,93.80
2022-12-05T11:41:54.440Z,93.80
2022-12-05T11:44:48.996Z,93.80
2022-12-05T11:47:58.395Z,93.80
2022-12-05T11:50:42.033Z,93.90
2022-12-05T11:53:24.095Z,93.80
2022-12-05T11:56:03.201Z,93.90
2022-12-05T11:58:39.349Z,93.90
2022-12-05T12:01:13.568Z,93.80
2022-12-05T12:03:43.349Z,93.80
2022-12-05T12:06:29.076Z,93.80
2022-12-05T12:08:58.803Z,93.90
2022-12-05T12:11:58.921Z,93.80
2022-12-05T12:14:55.933Z,93.90
2022-12-05T12:17:34.771Z,93.80
2022-12-05T12:20:36.572Z,93.80
2022-12-05T12:23:24.441Z,94.10
2022-12-05T12:26:12.433Z,93.80
2022-12-05T12:28:59.514Z,93.90
2022-12-05T12:31:38.563Z,93.80
2022-12-05T12:34:11.854Z,93.80
2022-12-05T12:36:42.567Z,93.80
2022-12-05T12:39:39.715Z,93.80
2022-12-05T12:42:24.947Z,93.80
2022-12-05T12:45:29.982Z,93.80
2022-12-05T12:48:00.007Z,93.80
2022-12-05T12:50:33.098Z,93.80
2022-12-05T12:53:18.795Z,93.80
2022-12-05T12:56:04.021Z,93.80
2022-12-05T12:58:52.270Z,93.80
2022-12-05T13:01:31.558Z,93.80
2022-12-05T13:04:13.010Z,93.80
2022-12-05T13:06:49.892Z,93.80
2022-12-05T13:09:26.869Z,93.80
2022-12-05T13:11:56.035Z,93.80
2022-12-05T13:14:25.859Z,93.90
2022-12-05T13:16:55.001Z,93.80
2022-12-05T13:19:41.019Z,93.80
2022-12-05T13:22:08.953Z,93.80
2022-12-05T13:24:36.067Z,93.80
2022-12-05T13:27:06.996Z,93.70
2022-12-05T13:29:42.242Z,93.80
2022-12-05T13:32:25.318Z,93.70
2022-12-05T13:34:52.950Z,93.80
2022-12-05T13:37:41.663Z,93.80
2022-12-05T13:40:50.580Z,94.10
2022-12-05T13:43:24.416Z,93.80
2022-12-05T13:46:03.002Z,93.70
2022-12-05T13:48:34.134Z,93.80
2022-12-05T13:51:26.901Z,93.80
2022-12-05T13:54:26.262Z,93.80
2022-12-05T13:57:01.577Z,93.80
2022-12-05T14:00:01.350Z,93.80
2022-12-05T14:02:43.622Z,93.80
2022-12-05T14:05:18.897Z,93.70
2022-12-05T14:07:50.903Z,93.80
2022-12-05T14:10:28.615Z,93.80
2022-12-05T14:13:01.477Z,93.70
2022-12-05T14:15:37.966Z,93.80
2022-12-05T14:18:07.154Z,93.80
2022-12-05T14:20:50.836Z,93.80
2022-12-05T14:23:44.341Z,93.80
2022-12-05T14:26:49.482Z,93.80
2022-12-05T14:29:25.824Z,93.80
2022-12-05T14:32:18.621Z,93.80
2022-12-05T14:35:15.022Z,93.70
2022-12-05T14:37:55.125Z,93.70
2022-12-05T14:40:40.654Z,93.80
2022-12-05T14:43:19.539Z,93.70
2022-12-05T14:46:07.159Z,93.80
2022-12-05T14:48:47.648Z,93.70
2022-12-05T14:51:37.130Z,93.70
2022-12-05T14:54:15.408Z,93.70
2022-12-05T14:57:00.026Z,93.70
2022-12-05T14:59:43.290Z,93.80
2022-12-05T15:02:17.898Z,93.70
2022-12-05T15:04:51.853Z,93.70
2022-12-05T15:07:23.054Z,93.70
2022-12-05T15:10:00.873Z,93.70
2022-12-05T15:12:51.454Z,93.80
2022-12-05T15:15:30.151Z,93.70
2022-12-05T15:18:34.752Z,93.70
2022-12-05T15:21:23.327Z,93.70
2022-12-05T15:24:05.345Z,94.00
2022-12-05T15:26:50.860Z,93.90
2022-12-05T15:29:21.196Z,94.30
2022-12-05T15:31:49.419Z,93.90
2022-12-05T15:34:29.332Z,93.90
2022-12-05T15:37:04.378Z,93.90
2022-12-05T15:40:04.856Z,93.90
2022-12-05T15:42:35.834Z,93.80
2022-12-05T15:45:15.333Z,93.90
2022-12-05T15:47:50.755Z,93.80
2022-12-05T15:50:24.330Z,93.90
2022-12-05T15:52:58.765Z,93.80
2022-12-05T15:55:54.549Z,93.90
2022-12-05T15:58:25.888Z,93.80
2022-12-05T16:01:09.870Z,93.80
2022-12-05T16:03:41.679Z,93.90
2022-12-05T16:06:25.886Z,93.80
2022-12-05T16:08:53.264Z,93.90
2022-12-05T16:11:21.030Z,93.80
2022-12-05T16:13:56.144Z,93.80
2022-12-05T16:16:29.875Z,93.90
2022-12-05T16:18:59.262Z,93.80
2022-12-05T16:21:39.145Z,93.80
2022-12-05T16:24:19.794Z,94.00
2022-12-05T16:27:03.430Z,94.20
2022-12-05T16:29:35.582Z,94.40
2022-12-05T16:32:06.251Z,94.40
2022-12-05T16:34:34.383Z,94.30
2022-12-05T16:37:01.811Z,94.40
2022-12-05T16:39:29.007Z,94.30
2022-12-05T16:41:56.965Z,94.20
2022-12-05T16:44:26.786Z,94.10
2022-12-05T16:46:54.906Z,94.20
2022-12-05T16:49:33.629Z,94.20
2022-12-05T16:52:08.206Z,94.10
2022-12-05T16:54:35.836Z,94.10
2022-12-05T16:57:03.807Z,94.00
2022-12-05T16:59:36.422Z,94.10
2022-12-05T17:02:05.927Z,94.00
2022-12-05T17:04:33.356Z,94.00
2022-12-05T17:07:00.457Z,94.00
2022-12-05T17:09:27.522Z,94.00
2022-12-05T17:12:03.242Z,94.00
2022-12-05T17:14:30.220Z,94.00
2022-12-05T17:16:57.562Z,93.90
2022-12-05T17:19:24.923Z,94.00
2022-12-05T17:21:52.111Z,93.90
2022-12-05T17:24:19.281Z,93.90
2022-12-05T17:26:47.474Z,93.90
2022-12-05T17:29:14.519Z,93.90
2022-12-05T17:31:41.605Z,93.90
2022-12-05T17:34:17.489Z,93.90
2022-12-05T17:36:45.328Z,93.90
2022-12-05T17:39:12.596Z,93.90
2022-12-05T17:41:39.766Z,93.80
2022-12-05T17:44:07.517Z,93.80
2022-12-05T17:46:34.642Z,93.90
2022-12-05T17:49:01.755Z,93.80
2022-12-05T17:51:29.083Z,93.80
2022-12-05T17:53:56.184Z,93.80
2022-12-05T17:56:23.221Z,93.80
2022-12-05T17:58:50.730Z,93.80
2022-12-05T18:01:20.163Z,93.80
2022-12-05T18:03:48.455Z,94.00
2022-12-05T18:06:16.157Z,93.80
2022-12-05T18:08:45.053Z,93.80
2022-12-05T18:11:14.552Z,93.80
2022-12-05T18:13:41.913Z,93.80
2022-12-05T18:16:09.415Z,93.80
2022-12-05T18:18:36.474Z,93.70
2022-12-05T18:21:11.741Z,93.80
2022-12-05T18:23:39.999Z,93.80
2022-12-05T18:26:09.354Z,93.80
2022-12-05T18:28:38.626Z,93.70
2022-12-05T18:31:15.376Z,93.70
2022-12-05T18:33:46.261Z,93.70
2022-12-05T18:36:19.584Z,93.70
2022-12-05T18:38:54.383Z,93.70
2022-12-05T18:41:23.682Z,93.70
2022-12-05T18:43:51.220Z,93.70
2022-12-05T18:46:18.439Z,93.70
2022-12-05T18:48:47.799Z,93.70
2022-12-05T18:51:17.794Z,93.70
2022-12-05T18:53:52.678Z,93.70
2022-12-05T18:56:24.668Z,93.70
2022-12-05T18:58:56.261Z,93.70
2022-12-05T19:01:23.865Z,93.70
2022-12-05T19:03:51.050Z,93.70
2022-12-05T19:06:21.399Z,93.70
2022-12-05T19:08:48.956Z,93.70
2022-12-05T19:11:18.140Z,93.70
2022-12-05T19:13:47.344Z,93.70
2022-12-05T19:16:17.030Z,93.70
2022-12-05T19:18:45.358Z,93.70
2022-12-05T19:21:13.320Z,93.70
2022-12-05T19:23:40.526Z,93.70
2022-12-05T19:26:09.586Z,93.70
2022-12-05T19:28:38.023Z,93.60
2022-12-05T19:31:16.652Z,93.70
2022-12-05T19:33:45.965Z,93.70
2022-12-05T19:36:18.885Z,93.60
2022-12-05T19:38:47.707Z,93.70
2022-12-05T19:41:16.723Z,93.70
2022-12-05T19:43:44.929Z,93.70
2022-12-05T19:46:16.441Z,93.60
2022-12-05T19:48:44.256Z,93.70
2022-12-05T19:51:11.353Z,93.60
2022-12-05T19:53:41.357Z,93.70
2022-12-05T19:56:14.445Z,93.70
2022-12-05T19:58:42.225Z,93.70
2022-12-05T20:01:21.494Z,93.60
2022-12-05T20:03:51.003Z,93.70
2022-12-05T20:06:19.220Z,93.70
2022-12-05T20:08:47.302Z,93.60
2022-12-05T20:11:19.845Z,93.60
2022-12-05T20:13:47.941Z,93.60
2022-12-05T20:16:18.971Z,93.60
2022-12-05T20:18:46.457Z,93.60
2022-12-05T20:21:15.866Z,93.60
2022-12-05T20:23:43.111Z,93.60
2022-12-05T20:26:17.005Z,93.60
2022-12-05T20:28:47.334Z,93.60
2022-12-05T20:31:17.337Z,93.90
2022-12-05T20:33:44.709Z,93.90
2022-12-05T20:36:15.173Z,93.60
2022-12-05T20:38:42.865Z,93.60
2022-12-05T20:41:15.452Z,93.60
2022-12-05T20:43:46.854Z,93.60
2022-12-05T20:46:18.177Z,93.60
2022-12-05T20:48:46.447Z,93.60
2022-12-05T20:51:15.884Z,93.60
2022-12-05T20:53:45.049Z,93.60
2022-12-05T20:56:17.705Z,93.60
2022-12-05T20:58:50.623Z,93.60
2022-12-05T21:01:19.197Z,93.70
2022-12-05T21:03:48.641Z,93.60
2022-12-05T21:06:26.439Z,93.60
2022-12-05T21:08:54.340Z,93.60
2022-12-05T21:11:22.846Z,93.60
2022-12-05T21:13:50.314Z,93.60
2022-12-05T21:16:19.743Z,93.60
2022-12-05T21:18:48.509Z,93.60
2022-12-05T21:21:18.023Z,93.60
2022-12-05T21:23:47.507Z,93.60
2022-12-05T21:26:16.721Z,93.50
2022-12-05T21:28:45.361Z,93.60
2022-12-05T21:31:17.190Z,93.60
2022-12-05T21:33:49.699Z,93.60
2022-12-05T21:36:17.307Z,93.60
2022-12-05T21:38:48.320Z,93.60
2022-12-05T21:41:17.996Z,93.60
2022-12-05T21:43:49.613Z,93.50
2022-12-05T21:46:19.730Z,93.50
2022-12-05T21:48:47.390Z,93.60
2022-12-05T21:51:14.463Z,93.60
2022-12-05T21:53:41.727Z,93.60
2022-12-05T21:56:17.377Z,93.60
2022-12-05T21:58:45.802Z,93.60
2022-12-05T22:01:18.123Z,93.60
2022-12-05T22:03:45.636Z,93.60
2022-12-05T22:06:15.370Z,93.60
2022-12-05T22:08:42.983Z,93.50
2022-12-05T22:11:14.169Z,93.50
2022-12-05T22:13:42.084Z,93.50
2022-12-05T22:16:09.581Z,93.60
2022-12-05T22:18:36.988Z,93.60
2022-12-05T22:21:10.566Z,93.60
2022-12-05T22:23:37.833Z,93.60
2022-12-05T22:26:11.749Z,93.60
2022-12-05T22:28:40.000Z,93.60
2022-12-05T22:31:10.185Z,93.50
2022-12-05T22:33:37.736Z,93.50
2022-12-05T22:36:08.230Z,93.50
2022-12-05T22:38:37.778Z,93.60
2022-12-05T22:41:22.994Z,93.60
2022-12-05T22:43:53.847Z,93.50
2022-12-05T22:46:21.674Z,93.50
2022-12-05T22:48:50.367Z,93.50
2022-12-05T22:51:19.555Z,93.60
2022-12-05T22:53:47.254Z,93.50
2022-12-05T22:56:16.857Z,93.50
2022-12-05T22:58:45.219Z,93.50
2022-12-05T23:01:38.489Z,93.50
2022-12-05T23:04:08.458Z,93.50
2022-12-05T23:06:36.637Z,93.50
2022-12-05T23:09:05.882Z,93.50
2022-12-05T23:11:33.117Z,93.50
2022-12-05T23:14:02.621Z,93.50
2022-12-05T23:16:32.185Z,93.60
2022-12-05T23:19:02.094Z,93.50
2022-12-05T23:21:37.782Z,93.50
2022-12-05T23:24:07.794Z,93.50
2022-12-05T23:26:41.052Z,93.60
2022-12-05T23:29:08.306Z,93.50
2022-12-05T23:31:35.510Z,93.60
2022-12-05T23:34:03.807Z,93.50
2022-12-05T23:36:32.980Z,93.50
2022-12-05T23:39:00.592Z,93.50
2022-12-05T23:41:27.730Z,93.50
2022-12-05T23:43:55.263Z,93.50
2022-12-05T23:46:25.030Z,93.60
2022-12-05T23:48:53.026Z,93.50
2022-12-05T23:51:22.745Z,93.60
2022-12-05T23:54:00.484Z,93.50
2022-12-05T23:56:30.189Z,93.60
2022-12-05T23:58:57.485Z,93.50
